createdAt,value
2023-03-01T00:01:42.313Z,7.15
2023-03-01T00:04:10.103Z,7.13
2023-03-01T00:06:38.522Z,7.25
2023-03-01T00:09:06.230Z,6.72
2023-03-01T00:11:35.363Z,7.40
2023-03-01T00:14:06.175Z,6.75
2023-03-01T00:16:42.089Z,6.53
2023-03-01T00:19:14.381Z,6.68
2023-03-01T00:21:42.479Z,7.30
2023-03-01T00:24:11.637Z,7.00
2023-03-01T00:26:39.899Z,6.40
2023-03-01T00:29:07.812Z,7.03
2023-03-01T00:31:36.003Z,7.57
2023-03-01T00:34:06.270Z,7.28
2023-03-01T00:36:37.142Z,8.15
2023-03-01T00:39:06.994Z,9.60
2023-03-01T00:41:35.867Z,12.38
2023-03-01T00:44:03.712Z,12.85
2023-03-01T00:46:35.520Z,11.82
2023-03-01T00:49:05.642Z,11.27
2023-03-01T00:51:33.696Z,10.75
2023-03-01T00:54:03.555Z,10.02
2023-03-01T00:56:32.441Z,9.32
2023-03-01T00:59:00.552Z,9.65
2023-03-01T01:01:33.515Z,9.50
2023-03-01T01:04:07.303Z,8.68
2023-03-01T01:06:46.694Z,8.77
2023-03-01T01:09:19.654Z,8.93
2023-03-01T01:11:49.268Z,8.43
2023-03-01T01:14:17.995Z,8.90
2023-03-01T01:16:45.715Z,8.20
2023-03-01T01:19:14.520Z,8.02
2023-03-01T01:21:44.342Z,8.13
2023-03-01T01:24:12.975Z,7.97
2023-03-01T01:26:40.584Z,8.50
2023-03-01T01:29:08.504Z,7.47
2023-03-01T01:31:38.072Z,7.68
2023-03-01T01:34:08.207Z,8.18
2023-03-01T01:36:36.014Z,7.10
2023-03-01T01:39:04.360Z,7.93
2023-03-01T01:41:32.470Z,7.53
2023-03-01T01:44:40.081Z,7.40
2023-03-01T01:47:18.483Z,7.72
2023-03-01T01:49:57.293Z,7.38
2023-03-01T01:52:37.043Z,6.57
2023-03-01T01:55:09.771Z,7.07
2023-03-01T01:57:43.005Z,6.80
2023-03-01T02:00:20.266Z,6.93
2023-03-01T02:02:50.460Z,7.25
2023-03-01T02:05:37.634Z,7.05
2023-03-01T02:08:05.648Z,6.93
2023-03-01T02:10:35.690Z,6.32
2023-03-01T02:13:04.672Z,6.28
2023-03-01T02:15:37.503Z,7.00
2023-03-01T02:18:06.561Z,7.57
2023-03-01T02:20:52.403Z,6.82
2023-03-01T02:23:20.156Z,6.35
2023-03-01T02:26:14.913Z,7.28
2023-03-01T02:28:45.053Z,6.47
2023-03-01T02:31:35.635Z,6.43
2023-03-01T02:34:05.883Z,6.45
2023-03-01T02:36:41.757Z,6.70
2023-03-01T02:39:15.477Z,6.03
2023-03-01T02:41:47.832Z,6.00
2023-03-01T02:44:15.770Z,5.23
2023-03-01T02:46:45.975Z,6.05
2023-03-01T02:49:27.595Z,6.43
2023-03-01T02:52:13.786Z,5.90
2023-03-01T02:55:04.422Z,5.90
2023-03-01T02:57:34.488Z,6.38
2023-03-01T03:00:09.537Z,6.05
2023-03-01T03:02:37.393Z,6.15
2023-03-01T03:05:14.000Z,6.10
2023-03-01T03:07:44.136Z,5.93
2023-03-01T03:10:21.852Z,6.22
2023-03-01T03:13:01.217Z,6.60
2023-03-01T03:15:30.145Z,6.30
2023-03-01T03:17:59.934Z,6.32
2023-03-01T03:20:29.202Z,6.72
2023-03-01T03:23:01.735Z,6.20
2023-03-01T03:25:30.125Z,6.88
2023-03-01T03:27:59.072Z,5.97
2023-03-01T03:30:29.942Z,6.20
2023-03-01T03:32:59.141Z,6.25
2023-03-01T03:35:32.692Z,6.28
2023-03-01T03:38:02.806Z,6.47
2023-03-01T03:40:34.521Z,5.53
2023-03-01T03:43:02.894Z,7.22
2023-03-01T03:45:30.470Z,7.22
2023-03-01T03:47:57.963Z,6.25
2023-03-01T03:50:25.619Z,6.68
2023-03-01T03:52:53.925Z,6.25
2023-03-01T03:55:21.547Z,6.45
2023-03-01T03:57:52.736Z,6.22
2023-03-01T04:00:22.808Z,6.63
2023-03-01T04:02:51.711Z,6.65
2023-03-01T04:05:20.475Z,6.85
2023-03-01T04:07:48.021Z,6.72
2023-03-01T04:10:19.565Z,6.95
2023-03-01T04:12:47.121Z,6.28
2023-03-01T04:15:14.690Z,7.25
2023-03-01T04:17:47.118Z,6.07
2023-03-01T04:20:25.702Z,6.35
2023-03-01T04:22:58.530Z,7.25
2023-03-01T04:25:26.752Z,6.65
2023-03-01T04:27:54.226Z,7.05
2023-03-01T04:30:26.612Z,7.55
2023-03-01T04:32:54.042Z,4.75
2023-03-01T04:35:21.811Z,6.90
2023-03-01T04:37:50.369Z,6.32
2023-03-01T04:40:18.250Z,6.60
2023-03-01T04:42:45.719Z,6.38
2023-03-01T04:45:14.297Z,7.20
2023-03-01T04:47:43.907Z,6.57
2023-03-01T04:50:14.030Z,6.85
2023-03-01T04:52:41.854Z,6.70
2023-03-01T04:55:10.424Z,6.80
2023-03-01T04:57:38.274Z,7.13
2023-03-01T05:00:20.959Z,6.43
2023-03-01T05:03:00.684Z,4.72
2023-03-01T05:05:31.748Z,6.88
2023-03-01T05:08:01.490Z,6.97
2023-03-01T05:10:31.306Z,6.53
2023-03-01T05:12:59.762Z,6.65
2023-03-01T05:15:29.515Z,6.57
2023-03-01T05:18:00.198Z,7.13
2023-03-01T05:20:29.694Z,6.85
2023-03-01T05:23:06.444Z,7.35
2023-03-01T05:25:35.387Z,6.25
2023-03-01T05:28:05.552Z,6.50
2023-03-01T05:30:34.965Z,6.50
2023-03-01T05:33:02.802Z,6.50
2023-03-01T05:35:30.759Z,7.10
2023-03-01T05:37:58.187Z,7.22
2023-03-01T05:40:25.863Z,6.47
2023-03-01T05:42:57.958Z,6.30
2023-03-01T05:45:27.109Z,4.93
2023-03-01T05:47:56.189Z,6.57
2023-03-01T05:50:29.480Z,7.10
2023-03-01T05:53:16.165Z,7.05
2023-03-01T05:55:45.303Z,7.35
2023-03-01T05:58:20.630Z,7.43
2023-03-01T06:00:49.887Z,6.97
2023-03-01T06:03:18.474Z,7.75
2023-03-01T06:05:46.461Z,6.63
2023-03-01T06:08:14.801Z,6.35
2023-03-01T06:10:42.279Z,6.38
2023-03-01T06:13:09.951Z,7.47
2023-03-01T06:15:37.731Z,7.70
2023-03-01T06:18:05.411Z,7.05
2023-03-01T06:20:32.888Z,6.82
2023-03-01T06:23:01.316Z,6.53
2023-03-01T06:25:29.112Z,8.05
2023-03-01T06:27:56.714Z,7.50
2023-03-01T06:30:26.654Z,7.47
2023-03-01T06:33:01.848Z,7.20
2023-03-01T06:35:31.056Z,7.55
2023-03-01T06:38:03.525Z,7.15
2023-03-01T06:40:32.313Z,7.40
2023-03-01T06:43:00.571Z,7.43
2023-03-01T06:45:28.245Z,8.18
2023-03-01T06:48:04.611Z,6.88
2023-03-01T06:50:32.391Z,7.28
2023-03-01T06:53:00.373Z,7.47
2023-03-01T06:55:28.163Z,7.35
2023-03-01T06:58:00.109Z,7.03
2023-03-01T07:00:28.793Z,6.35
2023-03-01T07:02:59.280Z,7.38
2023-03-01T07:05:26.784Z,7.65
2023-03-01T07:07:55.305Z,8.18
2023-03-01T07:10:23.060Z,6.38
2023-03-01T07:12:50.524Z,5.82
2023-03-01T07:15:18.350Z,6.40
2023-03-01T07:17:48.703Z,6.43
2023-03-01T07:20:16.368Z,5.63
2023-03-01T07:22:44.020Z,5.78
2023-03-01T07:25:12.425Z,6.72
2023-03-01T07:27:39.854Z,6.38
2023-03-01T07:30:08.324Z,7.97
2023-03-01T07:32:36.060Z,7.20
2023-03-01T07:35:04.016Z,6.78
2023-03-01T07:37:31.769Z,5.97
2023-03-01T07:39:59.228Z,6.45
2023-03-01T07:42:26.737Z,6.25
2023-03-01T07:44:54.248Z,6.30
2023-03-01T07:47:21.752Z,5.95
2023-03-01T07:49:49.208Z,6.40
2023-03-01T07:52:16.856Z,6.50
2023-03-01T07:54:45.683Z,6.40
2023-03-01T07:57:13.515Z,6.72
2023-03-01T07:59:41.008Z,5.72
2023-03-01T08:02:10.592Z,6.68
2023-03-01T08:04:38.290Z,6.90
2023-03-01T08:07:06.954Z,7.15
2023-03-01T08:09:37.669Z,6.88
2023-03-01T08:12:06.172Z,6.88
2023-03-01T08:14:34.287Z,7.35
2023-03-01T08:17:04.060Z,6.97
2023-03-01T08:19:31.818Z,7.35
2023-03-01T08:22:00.966Z,7.10
2023-03-01T08:24:29.032Z,6.78
2023-03-01T08:26:56.973Z,7.10
2023-03-01T08:29:25.859Z,6.78
2023-03-01T08:31:53.560Z,6.72
2023-03-01T08:34:21.178Z,6.88
2023-03-01T08:36:48.987Z,6.75
2023-03-01T08:39:19.442Z,6.43
2023-03-01T08:41:48.259Z,7.15
2023-03-01T08:44:17.980Z,6.38
2023-03-01T08:46:46.690Z,7.38
2023-03-01T08:49:16.510Z,6.50
2023-03-01T08:51:45.606Z,6.38
2023-03-01T08:54:16.051Z,6.60
2023-03-01T08:56:43.866Z,6.25
2023-03-01T08:59:16.485Z,5.90
2023-03-01T09:01:47.029Z,5.97
2023-03-01T09:04:16.910Z,4.80
2023-03-01T09:06:44.608Z,5.82
2023-03-01T09:09:17.083Z,5.50
2023-03-01T09:11:47.451Z,5.47
2023-03-01T09:14:15.794Z,5.50
2023-03-01T09:16:43.790Z,5.75
2023-03-01T09:19:12.259Z,5.78
2023-03-01T09:21:41.280Z,5.30
2023-03-01T09:24:16.234Z,4.97
2023-03-01T09:26:48.861Z,5.65
2023-03-01T09:29:18.005Z,5.80
2023-03-01T09:31:45.721Z,4.68
2023-03-01T09:34:14.920Z,5.15
2023-03-01T09:36:42.445Z,4.85
2023-03-01T09:39:09.965Z,5.07
2023-03-01T09:41:38.130Z,4.75
2023-03-01T09:44:23.000Z,5.38
2023-03-01T09:46:52.340Z,5.13
2023-03-01T09:49:29.449Z,5.65
2023-03-01T09:52:02.691Z,5.70
2023-03-01T09:54:30.296Z,5.63
2023-03-01T09:57:30.320Z,5.07
2023-03-01T10:00:36.640Z,4.75
2023-03-01T10:03:18.005Z,5.68
2023-03-01T10:05:57.203Z,5.32
2023-03-01T10:08:40.151Z,5.45
2023-03-01T10:11:25.238Z,5.80
2023-03-01T10:14:23.810Z,5.68
2023-03-01T10:17:05.846Z,5.20
2023-03-01T10:19:48.748Z,6.25
2023-03-01T10:22:23.512Z,5.20
2023-03-01T10:24:55.064Z,5.25
2023-03-01T10:27:26.716Z,5.28
2023-03-01T10:30:03.843Z,4.50
2023-03-01T10:32:32.194Z,5.40
2023-03-01T10:34:59.833Z,5.38
2023-03-01T10:37:28.510Z,5.25
2023-03-01T10:40:16.485Z,5.85
2023-03-01T10:42:51.290Z,5.32
2023-03-01T10:45:31.256Z,5.32
2023-03-01T10:48:19.643Z,4.80
2023-03-01T10:50:49.988Z,4.75
2023-03-01T10:53:39.191Z,4.78
2023-03-01T10:56:10.893Z,4.75
2023-03-01T10:58:40.293Z,4.97
2023-03-01T11:01:19.673Z,5.05
2023-03-01T11:04:04.277Z,5.07
2023-03-01T11:06:31.733Z,4.75
2023-03-01T11:09:19.738Z,5.10
2023-03-01T11:11:52.731Z,5.25
2023-03-01T11:14:47.487Z,4.93
2023-03-01T11:17:38.993Z,5.00
2023-03-01T11:20:14.857Z,5.45
2023-03-01T11:22:54.810Z,4.53
2023-03-01T11:25:28.146Z,4.50
2023-03-01T11:27:57.952Z,4.78
2023-03-01T11:31:08.161Z,4.65
2023-03-01T11:33:49.367Z,5.22
2023-03-01T11:36:19.665Z,4.72
2023-03-01T11:38:48.447Z,4.63
2023-03-01T11:41:30.002Z,4.55
2023-03-01T11:44:20.052Z,4.80
2023-03-01T11:46:59.318Z,5.40
2023-03-01T11:49:55.692Z,4.65
2023-03-01T11:52:54.300Z,5.18
2023-03-01T11:55:49.354Z,4.72
2023-03-01T11:58:38.630Z,5.07
2023-03-01T12:01:27.054Z,5.07
2023-03-01T12:04:26.437Z,4.85
2023-03-01T12:06:58.929Z,5.15
2023-03-01T12:09:29.133Z,5.10
2023-03-01T12:12:18.200Z,5.03
2023-03-01T12:15:19.490Z,5.65
2023-03-01T12:18:00.631Z,5.13
2023-03-01T12:20:37.306Z,4.68
2023-03-01T12:23:21.109Z,5.00
2023-03-01T12:26:13.289Z,5.10
2023-03-01T12:29:18.126Z,4.80
2023-03-01T12:31:45.656Z,4.63
2023-03-01T12:34:29.706Z,5.22
2023-03-01T12:37:25.848Z,5.35
2023-03-01T12:40:13.170Z,5.45
2023-03-01T12:42:58.712Z,5.10
2023-03-01T12:45:52.092Z,5.28
2023-03-01T12:48:32.499Z,5.15
2023-03-01T12:51:06.610Z,5.35
2023-03-01T12:53:40.124Z,4.40
2023-03-01T12:58:56.855Z,5.35
2023-03-01T13:01:37.749Z,5.38
2023-03-01T13:04:38.014Z,4.97
2023-03-01T13:07:17.451Z,5.28
2023-03-01T13:10:17.552Z,5.38
2023-03-01T13:12:48.040Z,5.07
2023-03-01T13:15:24.873Z,5.22
2023-03-01T13:17:57.076Z,4.72
2023-03-01T13:20:48.897Z,5.00
2023-03-01T13:23:22.650Z,5.07
2023-03-01T13:26:14.226Z,5.10
2023-03-01T13:28:50.449Z,5.05
2023-03-01T13:31:22.001Z,5.35
2023-03-01T13:33:49.835Z,4.57
2023-03-01T13:36:50.246Z,5.05
2023-03-01T13:39:33.690Z,5.13
2023-03-01T13:42:01.938Z,5.38
2023-03-01T13:44:39.856Z,5.70
2023-03-01T13:47:07.419Z,5.55
2023-03-01T13:49:46.779Z,4.95
2023-03-01T13:52:40.850Z,5.13
2023-03-01T13:55:24.679Z,5.13
2023-03-01T14:00:48.202Z,4.80
2023-03-01T14:03:21.145Z,4.80
2023-03-01T14:06:14.547Z,4.88
2023-03-01T14:08:43.844Z,4.13
2023-03-01T14:11:35.085Z,4.82
2023-03-01T14:14:20.935Z,4.90
2023-03-01T14:16:58.057Z,5.10
2023-03-01T14:19:33.415Z,4.55
2023-03-01T14:22:22.247Z,4.63
2023-03-01T14:24:53.143Z,4.70
2023-03-01T14:27:20.988Z,4.70
2023-03-01T14:30:04.463Z,4.68
2023-03-01T14:32:33.692Z,5.22
2023-03-01T14:35:02.162Z,4.70
2023-03-01T14:37:32.592Z,5.05
2023-03-01T14:40:02.219Z,4.95
2023-03-01T14:42:37.488Z,5.18
2023-03-01T14:45:08.142Z,5.55
2023-03-01T14:47:37.697Z,4.78
2023-03-01T14:50:28.458Z,5.25
2023-03-01T14:53:09.220Z,4.43
2023-03-01T14:55:45.814Z,3.60
2023-03-01T14:58:16.874Z,4.50
2023-03-01T15:00:57.708Z,4.18
2023-03-01T15:03:30.795Z,4.32
2023-03-01T15:05:59.025Z,4.72
2023-03-01T15:08:27.951Z,4.55
2023-03-01T15:11:18.497Z,4.35
2023-03-01T15:13:47.610Z,4.50
2023-03-01T15:16:18.015Z,4.55
2023-03-01T15:18:57.091Z,4.20
2023-03-01T15:21:29.632Z,4.45
2023-03-01T15:24:21.932Z,4.28
2023-03-01T15:27:03.064Z,4.32
2023-03-01T15:29:34.541Z,4.35
2023-03-01T15:32:05.284Z,3.97
2023-03-01T15:34:35.244Z,3.83
2023-03-01T15:37:06.670Z,4.10
2023-03-01T15:39:44.523Z,4.40
2023-03-01T15:42:13.479Z,3.85
2023-03-01T15:44:46.275Z,4.15
2023-03-01T15:47:26.572Z,4.00
2023-03-01T15:49:56.143Z,3.78
2023-03-01T15:52:30.553Z,4.22
2023-03-01T15:55:03.191Z,4.15
2023-03-01T15:57:31.037Z,4.27
2023-03-01T15:59:58.488Z,3.55
2023-03-01T16:02:26.187Z,3.80
2023-03-01T16:04:54.881Z,4.10
2023-03-01T16:07:22.453Z,3.63
2023-03-01T16:09:49.920Z,4.15
2023-03-01T16:12:18.044Z,3.72
2023-03-01T16:14:45.588Z,3.83
2023-03-01T16:17:13.276Z,3.55
2023-03-01T16:19:41.600Z,3.80
2023-03-01T16:22:11.711Z,4.55
2023-03-01T16:24:39.521Z,4.10
2023-03-01T16:27:07.051Z,3.95
2023-03-01T16:29:34.632Z,3.80
2023-03-01T16:32:03.388Z,3.85
2023-03-01T16:34:31.113Z,4.07
2023-03-01T16:36:58.692Z,3.88
2023-03-01T16:39:26.401Z,3.90
2023-03-01T16:41:53.979Z,4.47
2023-03-01T16:44:21.987Z,4.32
2023-03-01T16:46:49.482Z,4.35
2023-03-01T16:49:16.955Z,4.65
2023-03-01T16:51:45.408Z,4.25
2023-03-01T16:54:12.958Z,3.95
2023-03-01T16:56:40.751Z,4.05
2023-03-01T16:59:08.510Z,4.03
2023-03-01T17:01:40.678Z,3.75
2023-03-01T17:04:11.368Z,4.20
2023-03-01T17:06:38.890Z,4.35
2023-03-01T17:09:06.587Z,4.25
2023-03-01T17:11:34.266Z,3.67
2023-03-01T17:14:02.216Z,4.03
2023-03-01T17:16:29.949Z,4.03
2023-03-01T17:18:57.658Z,3.58
2023-03-01T17:21:25.207Z,4.03
2023-03-01T17:23:57.642Z,4.10
2023-03-01T17:26:25.663Z,4.22
2023-03-01T17:28:53.301Z,3.88
2023-03-01T17:31:21.007Z,3.78
2023-03-01T17:33:50.101Z,4.10
2023-03-01T17:36:17.961Z,3.95
2023-03-01T17:38:46.442Z,4.18
2023-03-01T17:41:16.111Z,4.13
2023-03-01T17:43:43.852Z,4.57
2023-03-01T17:46:12.467Z,4.13
2023-03-01T17:48:40.245Z,4.50
2023-03-01T17:51:12.601Z,4.10
2023-03-01T17:53:40.080Z,4.47
2023-03-01T17:56:08.295Z,3.83
2023-03-01T17:58:36.027Z,4.10
2023-03-01T18:01:34.027Z,4.43
2023-03-01T18:04:01.690Z,4.55
2023-03-01T18:06:29.867Z,4.07
2023-03-01T18:08:57.822Z,5.07
2023-03-01T18:11:26.088Z,4.75
2023-03-01T18:13:54.852Z,4.80
2023-03-01T18:16:23.365Z,4.75
2023-03-01T18:18:55.472Z,4.68
2023-03-01T18:21:23.788Z,5.15
2023-03-01T18:23:51.604Z,4.45
2023-03-01T18:26:22.320Z,4.68
2023-03-01T18:28:51.882Z,5.93
2023-03-01T18:31:22.756Z,5.15
2023-03-01T18:33:53.385Z,4.70
2023-03-01T18:36:25.414Z,5.22
2023-03-01T18:38:56.315Z,4.85
2023-03-01T18:41:25.754Z,4.47
2023-03-01T18:43:54.015Z,5.22
2023-03-01T18:46:22.186Z,5.25
2023-03-01T18:48:49.829Z,5.53
2023-03-01T18:51:23.673Z,5.82
2023-03-01T18:53:51.362Z,5.35
2023-03-01T18:56:19.000Z,5.97
2023-03-01T18:58:46.690Z,5.53
2023-03-01T19:01:16.810Z,5.60
2023-03-01T19:03:44.450Z,5.10
2023-03-01T19:06:12.259Z,5.85
2023-03-01T19:08:42.269Z,5.60
2023-03-01T19:11:11.022Z,5.60
2023-03-01T19:13:40.319Z,6.20
2023-03-01T19:16:11.308Z,5.55
2023-03-01T19:18:41.266Z,5.15
2023-03-01T19:21:11.133Z,5.70
2023-03-01T19:23:39.210Z,6.63
2023-03-01T19:26:09.674Z,5.90
2023-03-01T19:28:39.606Z,6.55
2023-03-01T19:31:12.782Z,6.30
2023-03-01T19:33:40.828Z,6.65
2023-03-01T19:36:10.444Z,6.18
2023-03-01T19:38:40.091Z,6.72
2023-03-01T19:41:14.788Z,7.65
2023-03-01T19:43:43.494Z,7.18
2023-03-01T19:46:11.545Z,7.25
2023-03-01T19:48:40.513Z,7.18
2023-03-01T19:51:09.469Z,6.88
2023-03-01T19:53:39.296Z,6.50
2023-03-01T19:56:07.771Z,7.40
2023-03-01T19:58:35.857Z,7.65
2023-03-01T20:01:03.324Z,7.25
2023-03-01T20:03:35.867Z,7.10
2023-03-01T20:06:23.858Z,7.07
2023-03-01T20:08:51.625Z,6.57
2023-03-01T20:11:19.851Z,7.25
2023-03-01T20:13:47.755Z,7.85
2023-03-01T20:16:20.031Z,7.47
2023-03-01T20:18:47.520Z,7.57
2023-03-01T20:21:24.026Z,7.40
2023-03-01T20:23:52.600Z,7.97
2023-03-01T20:26:21.965Z,8.18
2023-03-01T20:28:53.651Z,6.78
2023-03-01T20:31:23.084Z,8.27
2023-03-01T20:33:50.648Z,7.95
2023-03-01T20:36:18.218Z,7.55
2023-03-01T20:38:45.665Z,7.88
2023-03-01T20:41:14.041Z,8.48
2023-03-01T20:43:42.688Z,8.98
2023-03-01T20:46:12.484Z,8.77
2023-03-01T20:48:46.054Z,7.88
2023-03-01T20:51:14.460Z,8.00
2023-03-01T20:53:42.108Z,7.13
2023-03-01T20:56:15.415Z,7.82
2023-03-01T21:01:15.584Z,7.68
2023-03-01T21:03:43.134Z,8.40
2023-03-01T21:06:11.424Z,8.10
2023-03-01T21:08:39.297Z,7.25
2023-03-01T21:11:07.436Z,7.55
2023-03-01T21:13:36.367Z,8.52
2023-03-01T21:16:07.818Z,7.95
2023-03-01T21:18:37.053Z,7.53
2023-03-01T21:21:08.071Z,7.90
2023-03-01T21:23:37.767Z,8.63
2023-03-01T21:26:14.787Z,7.95
2023-03-01T21:28:43.299Z,8.90
2023-03-01T21:31:16.956Z,8.38
2023-03-01T21:33:49.171Z,7.72
2023-03-01T21:36:17.228Z,7.65
2023-03-01T21:38:47.325Z,7.70
2023-03-01T21:41:27.174Z,8.02
2023-03-01T21:44:06.857Z,7.90
2023-03-01T21:46:37.276Z,7.53
2023-03-01T21:49:05.381Z,7.93
2023-03-01T21:51:33.717Z,8.02
2023-03-01T21:54:04.069Z,8.00
2023-03-01T21:56:35.256Z,8.90
2023-03-01T21:59:03.621Z,8.75
2023-03-01T22:01:31.330Z,8.27
2023-03-01T22:04:00.848Z,7.68
2023-03-01T22:06:31.553Z,8.57
2023-03-01T22:09:06.110Z,8.93
2023-03-01T22:11:36.202Z,9.65
2023-03-01T22:14:05.039Z,8.82
2023-03-01T22:16:35.921Z,8.48
2023-03-01T22:19:04.675Z,8.27
2023-03-01T22:21:32.264Z,8.77
2023-03-01T22:24:00.368Z,8.48
2023-03-01T22:26:34.081Z,9.18
2023-03-01T22:29:04.743Z,9.40
2023-03-01T22:31:32.562Z,9.10
2023-03-01T22:34:00.344Z,8.88
2023-03-01T22:36:28.992Z,9.65
2023-03-01T22:39:04.414Z,10.20
2023-03-01T22:41:45.655Z,9.88
2023-03-01T22:44:15.865Z,8.95
2023-03-01T22:46:43.925Z,10.25
2023-03-01T22:49:12.417Z,10.77
2023-03-01T22:51:41.904Z,11.65
2023-03-01T22:54:10.678Z,10.15
2023-03-01T22:56:39.419Z,10.07
2023-03-01T22:59:12.734Z,9.70
2023-03-01T23:04:08.852Z,10.93
2023-03-01T23:06:50.245Z,11.73
2023-03-01T23:09:24.182Z,10.68
2023-03-01T23:11:52.485Z,11.23
2023-03-01T23:14:21.408Z,10.77
2023-03-01T23:16:51.006Z,10.38
2023-03-01T23:19:19.136Z,9.32
2023-03-01T23:21:50.236Z,9.27
2023-03-01T23:24:19.926Z,9.07
2023-03-01T23:26:53.457Z,9.52
2023-03-01T23:29:21.923Z,8.68
2023-03-01T23:31:49.541Z,9.23
2023-03-01T23:34:17.185Z,9.00
2023-03-01T23:36:47.657Z,9.95
2023-03-01T23:39:15.389Z,9.63
2023-03-01T23:41:43.122Z,9.50
2023-03-01T23:44:20.211Z,9.45
2023-03-01T23:46:49.012Z,9.32
2023-03-01T23:49:19.968Z,8.27
2023-03-01T23:51:47.971Z,9.35
2023-03-01T23:54:21.446Z,8.75
2023-03-01T23:56:49.225Z,9.02
2023-03-01T23:59:20.728Z,9.38
